Time;durP1;ratioP1;P1;durP2;ratioP2;P2;SDS_P1;SDS_P2;PMS_P1;PMS_P2;Temp;Humidity;BMP_temperature;BMP_pressure;BME280_temperature;BME280_humidity;BME280_pressure;Samples;Min_cycle;Max_cycle;Signal;HPM_P1;HPM_P2
2022/05/03 00:00:06;;;;;;;3.38;2.05;;;24.80;45.10;;;;;;5029285;28;20385;-65
2022/05/03 00:03:16;;;;;;;3.72;2.10;;;24.80;45.60;;;;;;5027345;28;20118;-64
2022/05/03 00:05:53;;;;;;;3.10;2.00;;;24.80;45.20;;;;;;5030173;28;20852;-64
2022/05/03 00:08:24;;;;;;;4.28;1.90;;;24.80;45.10;;;;;;5025366;28;20052;-64
2022/05/03 00:11:20;;;;;;;4.00;2.08;;;24.80;45.20;;;;;;5028334;28;20036;-64
2022/05/03 00:13:50;;;;;;;3.10;1.98;;;24.70;45.10;;;;;;5030197;28;20049;-61
2022/05/03 00:16:15;;;;;;;3.40;1.92;;;24.70;45.10;;;;;;5030201;28;20048;-62
2022/05/03 00:18:42;;;;;;;4.07;1.90;;;24.70;45.10;;;;;;5029956;28;20045;-65
2022/05/03 00:21:09;;;;;;;3.67;1.90;;;24.70;45.20;;;;;;5028924;28;20040;-64
2022/05/03 00:23:35;;;;;;;3.50;1.70;;;24.70;45.20;;;;;;5016197;28;20037;-64
2022/05/03 00:26:01;;;;;;;3.42;1.92;;;24.60;45.10;;;;;;5029236;28;20207;-65
2022/05/03 00:28:28;;;;;;;3.72;1.73;;;24.60;45.10;;;;;;5035722;28;20058;-62
2022/05/03 00:30:55;;;;;;;3.47;2.03;;;24.60;45.10;;;;;;5033807;28;20687;-64
2022/05/03 00:33:22;;;;;;;3.63;1.83;;;24.60;45.10;;;;;;5029683;28;20064;-64
2022/05/03 00:35:49;;;;;;;3.55;1.67;;;24.60;45.20;;;;;;5033125;28;20056;-65
2022/05/03 00:38:17;;;;;;;3.83;1.77;;;24.50;45.10;;;;;;5029794;28;20048;-65
2022/05/03 00:40:56;;;;;;;3.22;1.63;;;24.60;45.10;;;;;;5032597;28;20435;-64
2022/05/03 00:43:30;;;;;;;3.17;1.97;;;24.50;45.10;;;;;;5034255;28;20083;-64
2022/05/03 00:46:05;;;;;;;3.15;1.77;;;24.50;45.10;;;;;;5031896;28;20098;-63
2022/05/03 00:49:04;;;;;;;3.22;1.90;;;24.50;45.10;;;;;;5031270;28;20021;-65
2022/05/03 00:51:49;;;;;;;3.30;1.70;;;24.50;45.30;;;;;;5034993;28;20028;-64
2022/05/03 00:54:38;;;;;;;2.80;1.65;;;24.50;45.10;;;;;;5033125;28;20130;-64
2022/05/03 00:57:36;;;;;;;3.33;1.80;;;24.50;45.20;;;;;;5035114;28;20127;-65
2022/05/03 01:00:15;;;;;;;3.50;1.67;;;24.50;45.20;;;;;;5034296;28;20064;-65
2022/05/03 01:03:09;;;;;;;3.67;1.83;;;24.50;45.20;;;;;;5031213;28;20084;-64
2022/05/03 01:05:53;;;;;;;3.28;1.88;;;24.40;45.20;;;;;;5032982;28;20401;-61
2022/05/03 01:08:33;;;;;;;2.40;1.75;;;24.40;45.10;;;;;;5032137;28;20709;-64
2022/05/03 01:11:29;;;;;;;3.35;1.83;;;24.40;45.20;;;;;;5031884;28;20025;-61
2022/05/03 01:14:12;;;;;;;2.70;1.90;;;24.40;45.10;;;;;;5031388;28;20032;-61
2022/05/03 01:16:52;;;;;;;3.13;1.73;;;24.40;45.20;;;;;;5032402;28;20142;-65
2022/05/03 01:19:21;;;;;;;3.78;1.77;;;24.40;45.20;;;;;;5028624;28;20219;-65
2022/05/03 01:22:08;;;;;;;2.70;1.58;;;24.30;45.10;;;;;;5032852;28;20079;-65
2022/05/03 01:24:55;;;;;;;3.35;1.60;;;24.30;45.10;;;;;;5031855;28;20029;-65
2022/05/03 01:27:48;;;;;;;3.13;1.83;;;24.30;45.10;;;;;;5035593;28;20029;-65
2022/05/03 01:30:15;;;;;;;2.70;1.60;;;24.30;45.10;;;;;;5031329;28;20035;-65
2022/05/03 01:32:44;;;;;;;3.25;1.70;;;24.30;45.10;;;;;;5031521;28;22044;-64
2022/05/03 01:35:13;;;;;;;3.08;1.70;;;24.30;45.10;;;;;;5028704;28;20433;-65
2022/05/03 01:37:47;;;;;;;3.45;1.83;;;24.30;45.10;;;;;;5032725;28;20036;-67
2022/05/03 01:40:38;;;;;;;2.72;1.70;;;24.30;45.20;;;;;;5031225;28;20151;-65
2022/05/03 01:43:11;;;;;;;2.63;1.60;;;24.30;45.20;;;;;;5031666;28;20033;-64
2022/05/03 01:45:42;;;;;;;3.30;1.60;;;24.30;45.20;;;;;;5032856;28;20057;-61
2022/05/03 01:51:42;;;;;;;3.67;1.60;;;24.30;45.20;;;;;;4998959;28;20044;-64
2022/05/03 01:54:32;;;;;;;2.60;1.60;;;24.20;45.10;;;;;;5032505;28;20032;-65
2022/05/03 01:57:22;;;;;;;2.80;1.60;;;24.20;45.10;;;;;;5032993;28;20024;-65
2022/05/03 01:59:52;;;;;;;2.78;1.60;;;24.20;45.10;;;;;;5029792;28;20052;-66
2022/05/03 02:02:30;;;;;;;2.60;1.50;;;24.20;45.10;;;;;;5032514;28;20043;-64
2022/05/03 02:05:13;;;;;;;2.90;1.52;;;24.20;45.20;;;;;;5028396;28;20554;-64
2022/05/03 02:07:41;;;;;;;2.17;1.40;;;24.10;45.10;;;;;;5030519;28;20047;-64
2022/05/03 02:10:18;;;;;;;2.17;1.50;;;24.10;45.10;;;;;;5028095;28;20137;-64
2022/05/03 02:12:52;;;;;;;2.22;1.33;;;24.10;45.10;;;;;;5029562;28;20029;-65
2022/05/03 02:15:32;;;;;;;3.20;1.80;;;24.10;45.60;;;;;;5031746;28;20151;-62
2022/05/03 02:18:05;;;;;;;3.00;1.50;;;24.10;45.10;;;;;;5029632;28;20024;-65
2022/05/03 02:20:40;;;;;;;2.90;1.70;;;24.10;45.10;;;;;;5029992;28;20391;-61
2022/05/03 02:23:20;;;;;;;1.95;1.30;;;24.10;45.10;;;;;;5031697;28;20465;-65
2022/05/03 02:26:05;;;;;;;2.85;1.45;;;24.10;45.10;;;;;;5029822;28;20112;-65
2022/05/03 02:28:54;;;;;;;2.10;1.30;;;24.10;45.10;;;;;;5026268;28;20069;-65
2022/05/03 02:31:41;;;;;;;2.28;1.35;;;24.10;45.20;;;;;;5031591;28;20536;-64
2022/05/03 02:34:13;;;;;;;2.22;1.40;;;24.10;45.10;;;;;;5029725;28;20082;-62
2022/05/03 02:36:44;;;;;;;2.22;1.50;;;24.10;45.10;;;;;;5029155;28;20567;-61
2022/05/03 02:39:14;;;;;;;2.22;1.23;;;24.10;45.10;;;;;;5031041;28;20032;-65
2022/05/03 02:41:41;;;;;;;2.78;1.65;;;24.00;45.10;;;;;;5029872;28;20484;-65
2022/05/03 02:44:07;;;;;;;2.63;1.60;;;24.00;45.10;;;;;;5028275;28;20041;-65
2022/05/03 02:46:55;;;;;;;2.22;1.38;;;24.00;45.10;;;;;;5027955;28;20173;-61
2022/05/03 02:49:46;;;;;;;2.45;1.40;;;24.00;45.10;;;;;;5026420;28;20108;-65
2022/05/03 02:52:40;;;;;;;2.03;1.40;;;24.00;45.10;;;;;;5012836;28;20490;-65
2022/05/03 02:55:18;;;;;;;2.40;1.48;;;24.00;45.10;;;;;;5031378;28;20162;-65
2022/05/03 02:57:49;;;;;;;2.78;1.50;;;24.00;45.10;;;;;;5029441;28;20039;-65
2022/05/03 03:03:36;;;;;;;2.55;1.50;;;24.00;45.10;;;;;;5030302;28;20051;-61
2022/05/03 03:06:02;;;;;;;2.08;1.50;;;23.90;45.00;;;;;;5030896;28;20078;-65
2022/05/03 03:08:44;;;;;;;2.08;1.30;;;24.00;45.10;;;;;;5031690;28;20044;-65
2022/05/03 03:11:22;;;;;;;2.38;1.40;;;23.90;45.00;;;;;;5030836;28;20071;-64
2022/05/03 03:13:50;;;;;;;1.85;1.17;;;23.90;45.00;;;;;;5027440;28;20147;-65
2022/05/03 03:16:22;;;;;;;2.88;1.67;;;23.90;45.00;;;;;;5030300;28;20029;-65
2022/05/03 03:18:50;;;;;;;1.80;1.17;;;23.90;45.00;;;;;;5028818;28;20136;-65
2022/05/03 03:21:18;;;;;;;2.05;1.40;;;23.90;45.00;;;;;;5030493;28;20021;-64
2022/05/03 03:23:46;;;;;;;2.38;1.50;;;23.90;45.00;;;;;;5032469;28;20098;-65
2022/05/03 03:26:13;;;;;;;2.17;1.27;;;23.90;45.00;;;;;;5022721;28;20056;-65
2022/05/03 03:28:40;;;;;;;1.88;1.30;;;23.90;45.10;;;;;;5021863;28;20161;-65
2022/05/03 03:31:06;;;;;;;2.42;1.40;;;23.90;45.10;;;;;;5026246;28;20445;-64
2022/05/03 03:33:34;;;;;;;1.83;1.30;;;23.90;45.10;;;;;;5026875;28;20025;-65
2022/05/03 03:36:03;;;;;;;2.22;1.40;;;23.80;45.10;;;;;;5020918;28;20056;-65
2022/05/03 03:38:37;;;;;;;2.58;1.30;;;23.90;45.10;;;;;;5029379;28;20395;-64
2022/05/03 03:41:03;;;;;;;2.53;1.48;;;23.80;45.00;;;;;;5025491;28;20037;-64
2022/05/03 03:43:30;;;;;;;2.20;1.27;;;23.80;45.00;;;;;;5025446;28;20079;-64
2022/05/03 03:45:55;;;;;;;2.22;1.48;;;23.80;45.00;;;;;;5030010;28;20467;-65
2022/05/03 03:48:21;;;;;;;1.70;1.20;;;23.80;45.00;;;;;;5019876;28;20108;-63
2022/05/03 03:50:48;;;;;;;3.55;1.42;;;23.80;45.00;;;;;;5021413;28;20017;-65
2022/05/03 03:53:15;;;;;;;2.08;1.25;;;23.80;45.00;;;;;;5030824;28;20021;-65
2022/05/03 03:55:42;;;;;;;1.92;1.40;;;23.80;45.00;;;;;;5027541;28;20108;-65
2022/05/03 03:58:08;;;;;;;2.15;1.40;;;23.70;45.00;;;;;;5029821;28;20515;-61
2022/05/03 04:00:34;;;;;;;2.40;1.20;;;23.70;45.00;;;;;;5029324;28;20122;-65
2022/05/03 04:03:01;;;;;;;1.80;1.15;;;23.80;45.00;;;;;;5029146;28;20781;-63
2022/05/03 04:05:28;;;;;;;2.13;1.42;;;23.80;45.00;;;;;;5030376;28;20033;-65
2022/05/03 04:07:54;;;;;;;1.73;1.17;;;23.70;45.00;;;;;;5033200;28;20499;-64
2022/05/03 04:10:20;;;;;;;1.88;1.20;;;23.70;45.00;;;;;;5032459;28;20029;-63
2022/05/03 04:12:46;;;;;;;2.35;1.30;;;23.70;45.00;;;;;;5033176;28;20046;-64
2022/05/03 04:15:12;;;;;;;2.85;1.40;;;23.70;45.00;;;;;;5030962;28;20033;-65
2022/05/03 04:17:38;;;;;;;2.40;1.40;;;23.70;45.00;;;;;;5031200;28;20747;-65
2022/05/03 04:20:04;;;;;;;1.77;1.17;;;23.70;45.00;;;;;;5030430;28;20048;-65
2022/05/03 04:22:34;;;;;;;1.90;1.20;;;23.70;45.00;;;;;;5032014;28;20025;-63
2022/05/03 04:25:02;;;;;;;2.50;1.30;;;23.70;45.00;;;;;;5034018;28;20021;-66
2022/05/03 04:27:28;;;;;;;1.77;1.20;;;23.70;45.10;;;;;;5030344;28;20021;-65
2022/05/03 04:29:55;;;;;;;2.03;1.40;;;23.70;45.10;;;;;;5029333;28;20120;-61
2022/05/03 04:32:21;;;;;;;1.95;1.30;;;23.70;45.10;;;;;;5030274;28;20037;-65
2022/05/03 04:34:47;;;;;;;1.48;1.13;;;23.70;45.10;;;;;;5031023;28;20032;-64
2022/05/03 04:37:14;;;;;;;1.90;1.20;;;23.70;45.10;;;;;;5029542;28;20028;-65
2022/05/03 04:39:39;;;;;;;1.83;1.17;;;23.60;45.10;;;;;;5033286;28;20130;-62
2022/05/03 04:42:06;;;;;;;2.28;1.27;;;23.60;45.10;;;;;;5030586;28;20098;-65
2022/05/03 04:44:31;;;;;;;1.90;1.20;;;23.60;45.10;;;;;;5032901;28;20040;-65
2022/05/03 04:46:57;;;;;;;2.28;1.20;;;23.60;45.10;;;;;;5022042;28;20388;-65
2022/05/03 04:49:22;;;;;;;1.75;1.17;;;23.60;45.20;;;;;;5026658;28;20029;-65
2022/05/03 04:51:48;;;;;;;1.90;1.20;;;23.60;45.20;;;;;;5026443;28;20600;-65
2022/05/03 04:54:14;;;;;;;1.77;1.17;;;23.60;45.20;;;;;;5032117;28;20057;-61
2022/05/03 04:56:44;;;;;;;1.83;1.10;;;23.60;45.20;;;;;;5028758;28;20400;-66
2022/05/03 04:59:10;;;;;;;1.83;1.10;;;23.60;45.20;;;;;;5032504;28;20044;-62
2022/05/03 05:01:35;;;;;;;1.55;1.17;;;23.60;45.20;;;;;;5029179;28;20117;-65
2022/05/03 05:04:01;;;;;;;1.73;1.20;;;23.60;45.20;;;;;;5031598;28;20020;-64
2022/05/03 05:06:26;;;;;;;1.35;1.10;;;23.60;45.20;;;;;;5029526;28;20032;-65
2022/05/03 05:08:52;;;;;;;2.42;1.30;;;23.60;45.20;;;;;;5030738;28;20032;-64
2022/05/03 05:11:17;;;;;;;1.90;1.10;;;23.60;45.30;;;;;;5031214;28;20411;-65
2022/05/03 05:13:44;;;;;;;1.60;1.00;;;23.60;45.30;;;;;;5034078;28;20033;-65
2022/05/03 05:16:10;;;;;;;3.65;1.10;;;23.50;45.20;;;;;;5030268;28;20111;-65
2022/05/03 05:18:36;;;;;;;1.73;1.20;;;23.50;45.30;;;;;;5023636;28;20962;-65
2022/05/03 05:21:01;;;;;;;1.70;1.10;;;23.50;45.30;;;;;;5033866;28;20047;-65
2022/05/03 05:23:27;;;;;;;3.22;1.20;;;23.50;45.30;;;;;;5030992;28;20040;-64
2022/05/03 05:25:54;;;;;;;1.50;1.10;;;23.50;45.30;;;;;;5030353;28;20041;-64
2022/05/03 05:28:22;;;;;;;1.27;1.00;;;23.50;45.30;;;;;;5029907;28;20936;-64
2022/05/03 05:30:54;;;;;;;1.73;1.10;;;23.50;45.30;;;;;;5029843;28;20049;-64
2022/05/03 05:33:20;;;;;;;1.50;1.00;;;23.50;45.30;;;;;;5030120;28;20047;-65
2022/05/03 05:35:47;;;;;;;2.13;1.20;;;23.50;45.30;;;;;;5030953;28;20037;-64
2022/05/03 05:38:14;;;;;;;2.22;1.50;;;23.50;45.30;;;;;;5031562;28;20021;-64
2022/05/03 05:40:40;;;;;;;1.65;1.08;;;23.50;45.30;;;;;;5030009;28;20901;-61
2022/05/03 05:43:06;;;;;;;1.88;1.10;;;23.50;45.30;;;;;;5022762;28;20056;-64
2022/05/03 05:45:32;;;;;;;1.52;1.00;;;23.50;45.80;;;;;;5027619;28;20056;-62
2022/05/03 05:47:57;;;;;;;2.92;1.05;;;23.40;45.30;;;;;;5026025;28;20035;-65
2022/05/03 05:50:24;;;;;;;2.33;1.20;;;23.40;45.30;;;;;;5024437;28;20036;-64
2022/05/03 05:55:36;;;;;;;1.60;1.10;;;23.40;45.30;;;;;;5030945;28;20664;-64
2022/05/03 05:58:02;;;;;;;1.90;1.10;;;23.40;45.40;;;;;;5027046;28;20038;-63
2022/05/03 06:00:28;;;;;;;1.45;1.13;;;23.40;45.50;;;;;;5022236;28;20469;-64
2022/05/03 06:02:54;;;;;;;1.25;1.00;;;23.40;45.50;;;;;;5024439;28;20047;-62
2022/05/03 06:05:19;;;;;;;1.63;1.10;;;23.40;45.50;;;;;;5028624;28;20103;-65
2022/05/03 06:07:45;;;;;;;1.50;1.00;;;23.40;45.50;;;;;;5033547;28;21064;-63
2022/05/03 06:10:10;;;;;;;1.58;0.95;;;23.40;45.50;;;;;;5034485;28;20095;-64
2022/05/03 06:12:36;;;;;;;1.92;1.23;;;23.40;45.50;;;;;;5033450;28;20560;-64
2022/05/03 06:15:02;;;;;;;1.55;1.10;;;23.40;45.50;;;;;;5032575;28;20094;-65
2022/05/03 06:17:28;;;;;;;1.92;1.23;;;23.40;45.50;;;;;;5026553;28;20024;-65
2022/05/03 06:19:53;;;;;;;1.63;1.08;;;23.40;45.50;;;;;;5030545;28;20194;-64
2022/05/03 06:22:20;;;;;;;2.92;1.20;;;23.40;45.50;;;;;;5033020;28;20033;-64
2022/05/03 06:24:47;;;;;;;1.77;1.10;;;23.40;45.50;;;;;;5029810;28;20029;-64
2022/05/03 06:27:16;;;;;;;1.63;1.05;;;23.40;45.50;;;;;;5034079;28;20477;-64
2022/05/03 06:29:42;;;;;;;1.90;1.13;;;23.40;45.50;;;;;;5032328;28;20044;-64
2022/05/03 06:32:10;;;;;;;1.50;1.00;;;23.40;45.50;;;;;;5033229;28;20366;-61
2022/05/03 06:34:39;;;;;;;1.42;1.00;;;23.30;45.50;;;;;;5027349;28;20673;-64
2022/05/03 06:37:05;;;;;;;1.88;1.20;;;23.30;45.50;;;;;;5031638;28;20048;-64
2022/05/03 06:39:31;;;;;;;2.00;1.08;;;23.40;45.50;;;;;;5033620;28;20892;-64
2022/05/03 06:41:57;;;;;;;1.60;1.10;;;23.30;46.00;;;;;;5031874;28;20029;-64
2022/05/03 06:44:22;;;;;;;1.40;1.00;;;23.30;45.50;;;;;;5031892;28;20108;-65
2022/05/03 06:46:49;;;;;;;1.98;1.20;;;23.30;45.50;;;;;;5033572;28;20127;-64
2022/05/03 06:49:17;;;;;;;1.45;1.10;;;23.30;45.50;;;;;;5029729;28;20026;-61
2022/05/03 06:51:43;;;;;;;1.92;1.00;;;23.30;45.50;;;;;;5030304;28;20033;-64
2022/05/03 06:54:09;;;;;;;1.42;1.00;;;23.30;45.50;;;;;;5035000;28;20082;-62
2022/05/03 06:56:38;;;;;;;2.13;1.10;;;23.30;45.50;;;;;;5033584;28;21618;-64
2022/05/03 06:59:04;;;;;;;2.83;1.10;;;23.30;45.50;;;;;;5030212;28;20104;-63
2022/05/03 07:01:30;;;;;;;1.60;1.02;;;23.30;45.50;;;;;;5031785;28;20290;-64
2022/05/03 07:03:56;;;;;;;2.40;1.10;;;23.30;45.50;;;;;;5031837;28;20034;-63
2022/05/03 07:06:21;;;;;;;2.10;1.10;;;23.30;45.50;;;;;;5031705;28;20448;-64
2022/05/03 07:08:47;;;;;;;1.92;1.15;;;23.30;45.50;;;;;;5031659;28;20030;-64
2022/05/03 07:11:14;;;;;;;2.85;1.02;;;23.30;45.50;;;;;;5033316;28;20064;-64
2022/05/03 07:13:40;;;;;;;1.30;1.02;;;23.30;45.50;;;;;;5032477;28;20079;-61
2022/05/03 07:16:06;;;;;;;1.50;1.10;;;23.30;45.50;;;;;;5031104;28;20508;-60
2022/05/03 07:24:00;;;;;;;2.10;1.13;;;23.30;45.50;;;;;;5031894;28;20530;-63
2022/05/03 07:26:26;;;;;;;1.38;1.10;;;23.30;45.40;;;;;;5031530;28;20071;-63
2022/05/03 07:28:51;;;;;;;1.30;1.10;;;23.30;45.40;;;;;;5031082;28;20100;-63
2022/05/03 07:31:18;;;;;;;2.30;1.10;;;23.30;45.50;;;;;;5031262;28;20139;-60
2022/05/03 07:33:45;;;;;;;1.35;1.02;;;23.30;45.40;;;;;;5027797;28;20059;-63
2022/05/03 07:36:11;;;;;;;1.33;0.90;;;23.30;45.50;;;;;;5031259;28;20029;-63
2022/05/03 07:38:38;;;;;;;2.55;1.10;;;23.30;45.40;;;;;;5035424;28;20465;-63
2022/05/03 07:41:04;;;;;;;2.85;1.40;;;23.30;45.40;;;;;;5033684;28;21799;-63
2022/05/03 07:43:29;;;;;;;1.65;1.17;;;23.30;45.50;;;;;;5035070;28;20029;-63
2022/05/03 07:45:55;;;;;;;1.83;1.20;;;23.30;45.50;;;;;;5034229;28;20060;-63
2022/05/03 07:48:21;;;;;;;1.77;1.20;;;23.30;45.50;;;;;;5034250;28;20431;-63
2022/05/03 07:50:47;;;;;;;2.15;1.60;;;23.30;45.50;;;;;;5034824;28;20166;-63
2022/05/03 07:53:13;;;;;;;1.80;1.10;;;23.30;45.50;;;;;;5034934;28;20132;-63
2022/05/03 07:55:39;;;;;;;1.70;1.08;;;23.30;45.50;;;;;;5035324;28;20035;-59
2022/05/03 07:58:05;;;;;;;3.00;1.40;;;23.30;45.50;;;;;;5034860;28;20790;-62
2022/05/03 08:00:31;;;;;;;2.00;1.40;;;23.30;45.60;;;;;;5034584;28;20574;-61
2022/05/03 08:02:57;;;;;;;1.73;1.23;;;23.30;45.60;;;;;;5032603;28;20028;-63
2022/05/03 08:05:23;;;;;;;2.70;1.80;;;23.30;45.60;;;;;;5032586;28;20040;-63
2022/05/03 08:07:49;;;;;;;2.75;1.65;;;23.20;45.50;;;;;;5034797;28;20071;-63
2022/05/03 08:10:15;;;;;;;1.80;1.23;;;23.30;45.70;;;;;;5033343;28;20734;-62
2022/05/03 08:12:41;;;;;;;2.03;1.33;;;23.30;45.70;;;;;;5035251;28;20152;-63
2022/05/03 08:15:07;;;;;;;2.03;1.25;;;23.30;45.70;;;;;;5036292;28;20040;-63
2022/05/03 08:17:33;;;;;;;2.20;1.30;;;23.30;45.70;;;;;;5033216;28;20095;-62
2022/05/03 08:19:59;;;;;;;1.55;1.10;;;23.30;45.70;;;;;;5031723;28;20123;-63
2022/05/03 08:22:25;;;;;;;3.05;1.30;;;23.30;45.80;;;;;;5034476;28;20063;-63
2022/05/03 08:24:51;;;;;;;2.65;1.20;;;23.30;45.80;;;;;;5035625;28;20061;-63
2022/05/03 08:27:18;;;;;;;1.75;1.15;;;23.30;45.80;;;;;;5034913;28;20302;-63
2022/05/03 08:29:43;;;;;;;2.15;1.15;;;23.30;45.80;;;;;;5033347;28;20041;-63
2022/05/03 08:32:09;;;;;;;2.20;1.20;;;23.30;45.90;;;;;;5034106;28;20037;-59
2022/05/03 08:34:35;;;;;;;1.30;1.00;;;23.30;45.90;;;;;;5034884;28;20154;-63
2022/05/03 08:42:30;;;;;;;1.90;1.02;;;23.30;45.90;;;;;;5031986;28;20047;-62
2022/05/03 08:44:56;;;;;;;1.60;1.10;;;23.30;45.90;;;;;;5033904;28;20025;-59
2022/05/03 08:47:25;;;;;;;1.00;0.90;;;23.20;45.90;;;;;;5033018;28;20665;-63
2022/05/03 08:50:19;;;;;;;1.58;1.00;;;23.20;45.90;;;;;;5032638;28;20029;-63
2022/05/03 08:53:04;;;;;;;2.45;1.10;;;23.30;46.00;;;;;;5032844;28;20037;-63
2022/05/03 08:55:30;;;;;;;1.85;1.00;;;23.20;46.00;;;;;;5033231;28;20053;-60
2022/05/03 08:57:56;;;;;;;2.08;1.10;;;23.20;46.00;;;;;;5034321;28;20489;-63
2022/05/03 09:00:23;;;;;;;1.55;1.00;;;23.20;46.00;;;;;;5013171;28;20115;-63
2022/05/03 09:02:56;;;;;;;1.63;1.00;;;23.20;46.00;;;;;;5031718;28;20056;-63
2022/05/03 09:05:23;;;;;;;1.85;1.10;;;23.20;46.10;;;;;;5033491;28;20029;-63
2022/05/03 09:07:59;;;;;;;1.52;1.13;;;23.20;46.10;;;;;;5033150;28;20036;-63
2022/05/03 09:10:33;;;;;;;1.15;0.90;;;23.20;46.10;;;;;;5033895;28;20025;-61
2022/05/03 09:13:18;;;;;;;1.17;1.00;;;23.20;46.10;;;;;;5034102;28;20025;-63
2022/05/03 09:15:45;;;;;;;1.55;1.10;;;23.20;46.20;;;;;;5032858;28;20120;-60
2022/05/03 09:18:20;;;;;;;1.40;0.90;;;23.20;46.10;;;;;;5031123;28;20036;-63
2022/05/03 09:26:19;;;;;;;1.13;0.90;;;23.20;46.10;;;;;;5034121;28;20029;-63
2022/05/03 09:28:46;;;;;;;1.27;0.90;;;23.20;46.10;;;;;;5035229;28;20028;-61
2022/05/03 09:31:12;;;;;;;1.20;0.90;;;23.20;46.70;;;;;;5032966;28;20036;-63
2022/05/03 09:33:38;;;;;;;1.90;1.00;;;23.20;46.20;;;;;;5031543;28;20034;-59
2022/05/03 09:36:11;;;;;;;1.08;0.90;;;23.20;46.20;;;;;;5032615;28;20480;-63
2022/05/03 09:38:47;;;;;;;1.38;1.00;;;23.20;46.10;;;;;;5031956;28;20031;-63
2022/05/03 09:41:17;;;;;;;1.13;1.02;;;23.20;46.20;;;;;;5033857;28;20025;-59
2022/05/03 09:44:06;;;;;;;1.00;0.85;;;23.20;46.20;;;;;;5033312;28;20100;-63
2022/05/03 09:46:53;;;;;;;1.27;0.95;;;23.20;46.20;;;;;;5032795;28;20090;-60
2022/05/03 09:49:35;;;;;;;1.40;1.02;;;23.20;46.20;;;;;;5032199;28;20025;-63
2022/05/03 09:52:02;;;;;;;1.23;0.95;;;23.20;46.20;;;;;;5032880;28;20024;-63
2022/05/03 09:54:28;;;;;;;1.50;0.90;;;23.20;46.20;;;;;;5033839;28;20041;-63
2022/05/03 09:56:56;;;;;;;1.38;0.82;;;23.20;46.20;;;;;;5034373;28;20080;-61
2022/05/03 09:59:25;;;;;;;1.55;1.05;;;23.20;46.20;;;;;;5031365;28;20036;-63
2022/05/03 10:01:51;;;;;;;1.35;0.88;;;23.20;46.20;;;;;;5031405;28;20041;-63
2022/05/03 10:04:16;;;;;;;1.58;1.10;;;23.20;46.20;;;;;;5028377;28;20089;-63
2022/05/03 10:06:42;;;;;;;1.27;1.00;;;23.20;46.30;;;;;;5029257;28;20025;-63
2022/05/03 10:09:08;;;;;;;2.00;1.13;;;23.20;46.20;;;;;;5034999;28;20553;-63
2022/05/03 10:11:36;;;;;;;1.48;1.00;;;23.20;46.20;;;;;;5028199;28;20043;-64
2022/05/03 10:14:02;;;;;;;2.15;0.90;;;23.20;46.20;;;;;;5026344;28;20063;-63
2022/05/03 10:22:08;;;;;;;1.50;0.93;;;23.20;46.20;;;;;;5032825;28;20028;-64
2022/05/03 10:24:53;;;;;;;1.95;0.90;;;23.20;46.70;;;;;;5030735;28;20053;-63
2022/05/03 10:27:23;;;;;;;1.33;1.00;;;23.20;46.20;;;;;;5030620;28;20051;-63
2022/05/03 10:30:16;;;;;;;1.33;0.93;;;23.20;46.20;;;;;;5032118;28;20029;-63
2022/05/03 10:32:42;;;;;;;1.70;0.93;;;23.20;46.20;;;;;;5027758;28;20099;-60
2022/05/03 10:35:33;;;;;;;1.30;1.00;;;23.20;46.20;;;;;;5029358;28;20056;-64
2022/05/03 10:37:59;;;;;;;1.27;0.90;;;23.20;46.20;;;;;;5027250;28;20025;-63
2022/05/03 10:40:40;;;;;;;1.30;0.82;;;23.20;46.20;;;;;;5032294;28;20104;-60
2022/05/03 10:43:11;;;;;;;1.98;1.00;;;23.20;46.20;;;;;;5029675;28;20032;-63
2022/05/03 10:46:08;;;;;;;1.42;1.02;;;23.20;46.20;;;;;;5029064;28;20036;-63
2022/05/03 10:48:37;;;;;;;1.75;1.00;;;23.20;46.20;;;;;;5027818;28;20029;-60
2022/05/03 10:51:07;;;;;;;2.00;1.10;;;23.20;46.30;;;;;;5028171;28;20047;-64
2022/05/03 10:53:43;;;;;;;1.45;1.00;;;23.20;46.20;;;;;;5030584;28;20025;-63
2022/05/03 10:56:19;;;;;;;1.88;1.10;;;23.20;46.30;;;;;;5028481;28;20107;-63
2022/05/03 10:59:08;;;;;;;2.60;0.93;;;23.20;46.30;;;;;;5021999;28;20337;-62
2022/05/03 11:01:54;;;;;;;2.00;0.90;;;23.20;46.20;;;;;;5018105;28;20033;-63
2022/05/03 11:04:21;;;;;;;2.25;0.95;;;23.20;46.90;;;;;;5017566;28;20029;-64
2022/05/03 11:06:49;;;;;;;2.08;1.08;;;23.20;47.00;;;;;;5020268;28;20021;-63
2022/05/03 11:09:25;;;;;;;2.38;1.20;;;23.20;46.90;;;;;;5023576;28;20021;-64
2022/05/03 11:11:56;;;;;;;1.75;1.00;;;23.20;46.70;;;;;;5026655;28;20130;-64
2022/05/03 11:14:22;;;;;;;1.70;1.00;;;23.20;46.50;;;;;;5024855;28;20672;-63
2022/05/03 11:17:05;;;;;;;1.30;0.85;;;23.20;46.50;;;;;;5021647;28;20117;-63
2022/05/03 11:19:34;;;;;;;1.90;1.10;;;23.20;46.50;;;;;;5026530;28;20108;-64
2022/05/03 11:22:00;;;;;;;1.70;1.00;;;23.20;46.50;;;;;;5025065;28;20057;-64
2022/05/03 11:24:30;;;;;;;1.45;0.95;;;23.20;46.50;;;;;;5013584;28;20346;-64
2022/05/03 11:26:58;;;;;;;2.38;1.10;;;23.20;46.50;;;;;;5028195;28;20071;-63
2022/05/03 11:29:32;;;;;;;3.58;1.10;;;23.20;46.50;;;;;;5030423;28;20464;-63
2022/05/03 11:31:59;;;;;;;1.55;0.93;;;23.20;46.50;;;;;;5024813;28;20128;-63
2022/05/03 11:34:26;;;;;;;2.60;1.10;;;23.20;46.50;;;;;;5028196;28;20142;-63
2022/05/03 11:36:52;;;;;;;1.75;1.00;;;23.20;46.50;;;;;;5029152;28;20025;-59
2022/05/03 11:39:19;;;;;;;2.65;1.10;;;23.20;46.50;;;;;;5028321;28;20050;-65
2022/05/03 11:41:46;;;;;;;2.50;1.02;;;23.20;46.50;;;;;;5024644;28;20070;-63
2022/05/03 11:44:12;;;;;;;3.15;1.20;;;23.20;46.50;;;;;;5031146;28;20186;-63
2022/05/03 11:46:39;;;;;;;1.40;0.90;;;23.20;46.50;;;;;;5017651;28;20025;-63
2022/05/03 11:49:08;;;;;;;1.30;0.90;;;23.20;46.80;;;;;;5026731;28;20153;-63
2022/05/03 11:57:15;;;;;;;1.73;0.80;;;23.30;47.40;;;;;;5025504;28;20637;-66
2022/05/03 11:59:44;;;;;;;1.70;1.00;;;23.30;47.30;;;;;;5022080;28;20048;-65
2022/05/03 12:02:29;;;;;;;1.73;0.90;;;23.40;47.10;;;;;;5022285;28;20048;-63
2022/05/03 12:05:06;;;;;;;1.40;0.90;;;23.40;47.00;;;;;;5023280;28;20187;-62
2022/05/03 12:07:38;;;;;;;2.28;0.90;;;23.40;46.90;;;;;;5022390;28;20047;-65
2022/05/03 12:10:31;;;;;;;1.95;1.00;;;23.50;46.90;;;;;;5023018;28;20018;-63
2022/05/03 12:13:17;;;;;;;2.92;0.98;;;23.50;46.70;;;;;;5022438;28;20045;-62
2022/05/03 12:16:03;;;;;;;2.25;1.10;;;23.60;46.70;;;;;;5023012;28;20029;-66
2022/05/03 12:18:31;;;;;;;2.58;1.40;;;23.60;46.70;;;;;;5020674;28;20046;-66
2022/05/03 12:21:21;;;;;;;1.65;1.00;;;23.70;46.60;;;;;;5024179;28;20272;-64
2022/05/03 12:23:48;;;;;;;1.50;1.05;;;23.70;46.60;;;;;;5025732;28;20064;-61
2022/05/03 12:26:21;;;;;;;1.73;1.30;;;23.70;46.50;;;;;;5024202;28;20028;-64
2022/05/03 12:28:50;;;;;;;2.67;1.20;;;23.80;46.50;;;;;;5026472;28;20022;-66
2022/05/03 12:31:16;;;;;;;;;;;23.80;46.40;;;;;;5025596;28;20357;-66
2022/05/03 12:33:52;;;;;;;1.58;1.00;;;23.80;46.50;;;;;;5022392;28;20260;-64
2022/05/03 12:36:40;;;;;;;1.80;1.20;;;23.90;46.40;;;;;;5026350;28;20398;-64
2022/05/03 12:39:11;;;;;;;1.00;0.90;;;23.90;46.40;;;;;;5029193;28;20491;-63
2022/05/03 12:41:38;;;;;;;1.83;0.90;;;23.90;46.40;;;;;;5024302;28;20481;-66
2022/05/03 12:44:04;;;;;;;2.75;1.30;;;23.90;46.30;;;;;;5023072;28;20566;-66
2022/05/03 12:46:30;;;;;;;2.22;1.02;;;24.00;46.30;;;;;;5023178;28;20037;-66
2022/05/03 12:48:56;;;;;;;2.35;1.20;;;24.00;46.80;;;;;;5020238;28;20024;-65
2022/05/03 12:51:23;;;;;;;1.80;1.00;;;24.00;46.30;;;;;;5027118;28;20089;-66
2022/05/03 12:53:48;;;;;;;1.88;1.17;;;24.10;46.20;;;;;;5024135;28;20120;-66
2022/05/03 12:58:58;;;;;;;1.63;1.20;;;24.10;46.20;;;;;;5025812;28;20043;-65
2022/05/03 13:01:24;;;;;;;1.48;1.00;;;24.10;46.10;;;;;;5023913;28;20036;-65
2022/05/03 13:03:50;;;;;;;2.03;1.10;;;24.20;46.10;;;;;;5022140;28;20088;-65
2022/05/03 13:06:20;;;;;;;2.30;1.30;;;24.20;46.00;;;;;;5025268;28;20322;-61
2022/05/03 13:08:46;;;;;;;1.73;1.10;;;24.30;46.00;;;;;;5024166;28;20292;-65
2022/05/03 13:11:12;;;;;;;1.65;1.10;;;24.30;46.00;;;;;;5022404;28;20184;-65
2022/05/03 13:13:38;;;;;;;2.03;1.00;;;24.30;46.00;;;;;;5024342;28;20448;-65
2022/05/03 13:16:04;;;;;;;2.00;1.10;;;24.30;45.90;;;;;;5027291;28;20443;-64
2022/05/03 13:18:30;;;;;;;2.20;1.10;;;24.30;45.90;;;;;;5020085;28;20036;-65
2022/05/03 13:20:56;;;;;;;2.45;1.20;;;24.40;45.80;;;;;;5025937;28;20131;-65
2022/05/03 13:23:22;;;;;;;2.20;1.30;;;24.40;45.80;;;;;;5026796;28;20032;-64
2022/05/03 13:25:48;;;;;;;2.13;1.20;;;24.40;45.80;;;;;;5026953;28;20037;-65
2022/05/03 13:28:15;;;;;;;1.88;1.23;;;24.50;45.80;;;;;;5026757;28;20380;-64
2022/05/03 13:30:41;;;;;;;1.85;1.10;;;24.50;45.70;;;;;;5023867;28;20072;-64
2022/05/03 13:33:07;;;;;;;1.30;1.00;;;24.50;45.70;;;;;;5023555;28;20171;-63
2022/05/03 13:41:01;;;;;;;1.83;1.00;;;24.60;45.70;;;;;;5032132;28;20056;-64
2022/05/03 13:43:27;;;;;;;1.55;0.90;;;24.60;45.70;;;;;;5033030;28;20029;-64
2022/05/03 13:45:53;;;;;;;1.05;0.90;;;24.60;45.80;;;;;;5032809;28;20151;-65
2022/05/03 13:48:18;;;;;;;1.50;1.10;;;24.50;45.60;;;;;;5030722;28;20037;-64
2022/05/03 13:50:45;;;;;;;1.80;1.05;;;24.60;45.70;;;;;;5031865;28;20510;-64